sensor_id;sensor_type;location;lat;lon;timestamp;P1;durP1;ratioP1;P2;durP2;ratioP2
14526;SDS011;7350;51.208;4.238;2022-10-16T00:00:00;3.83;;;2.28;;
14526;SDS011;7350;51.208;4.238;2022-10-16T00:02:27;2.50;;;1.63;;
14526;SDS011;7350;51.208;4.238;2022-10-16T00:04:54;2.88;;;1.70;;
14526;SDS011;7350;51.208;4.238;2022-10-16T00:07:20;2.10;;;1.65;;
14526;SDS011;7350;51.208;4.238;2022-10-16T00:09:47;1.70;;;1.60;;
14526;SDS011;7350;51.208;4.238;2022-10-16T00:12:16;4.68;;;1.70;;
14526;SDS011;7350;51.208;4.238;2022-10-16T00:14:43;5.50;;;1.70;;
14526;SDS011;7350;51.208;4.238;2022-10-16T00:17:10;2.55;;;1.73;;
14526;SDS011;7350;51.208;4.238;2022-10-16T00:19:36;3.83;;;1.63;;
14526;SDS011;7350;51.208;4.238;2022-10-16T00:22:03;3.80;;;1.92;;
14526;SDS011;7350;51.208;4.238;2022-10-16T00:24:30;4.25;;;1.52;;
14526;SDS011;7350;51.208;4.238;2022-10-16T00:26:57;2.63;;;1.83;;
14526;SDS011;7350;51.208;4.238;2022-10-16T00:29:25;2.10;;;1.60;;
14526;SDS011;7350;51.208;4.238;2022-10-16T00:31:52;4.32;;;1.42;;
14526;SDS011;7350;51.208;4.238;2022-10-16T00:34:19;2.08;;;1.73;;
14526;SDS011;7350;51.208;4.238;2022-10-16T00:36:46;1.98;;;1.50;;
14526;SDS011;7350;51.208;4.238;2022-10-16T00:39:13;1.88;;;1.40;;
14526;SDS011;7350;51.208;4.238;2022-10-16T00:41:40;4.55;;;1.20;;
14526;SDS011;7350;51.208;4.238;2022-10-16T00:47:09;2.28;;;1.50;;
14526;SDS011;7350;51.208;4.238;2022-10-16T00:49:38;1.35;;;1.25;;
14526;SDS011;7350;51.208;4.238;2022-10-16T00:52:05;1.80;;;1.40;;
14526;SDS011;7350;51.208;4.238;2022-10-16T00:54:32;1.20;;;1.10;;
14526;SDS011;7350;51.208;4.238;2022-10-16T00:57:03;2.42;;;1.38;;
14526;SDS011;7350;51.208;4.238;2022-10-16T00:59:33;2.10;;;1.40;;
14526;SDS011;7350;51.208;4.238;2022-10-16T01:02:01;1.42;;;1.23;;
14526;SDS011;7350;51.208;4.238;2022-10-16T01:04:31;3.05;;;1.27;;
14526;SDS011;7350;51.208;4.238;2022-10-16T01:07:02;3.25;;;1.40;;
14526;SDS011;7350;51.208;4.238;2022-10-16T01:09:37;1.90;;;1.13;;
14526;SDS011;7350;51.208;4.238;2022-10-16T01:12:14;2.50;;;1.30;;
14526;SDS011;7350;51.208;4.238;2022-10-16T01:14:47;3.13;;;1.10;;
14526;SDS011;7350;51.208;4.238;2022-10-16T01:17:21;2.90;;;1.42;;
14526;SDS011;7350;51.208;4.238;2022-10-16T01:20:00;3.03;;;1.30;;
14526;SDS011;7350;51.208;4.238;2022-10-16T01:22:33;3.60;;;1.50;;
14526;SDS011;7350;51.208;4.238;2022-10-16T01:25:05;3.63;;;1.17;;
14526;SDS011;7350;51.208;4.238;2022-10-16T01:27:41;2.45;;;1.40;;
14526;SDS011;7350;51.208;4.238;2022-10-16T01:30:12;3.00;;;1.20;;
14526;SDS011;7350;51.208;4.238;2022-10-16T01:32:44;1.45;;;1.17;;
14526;SDS011;7350;51.208;4.238;2022-10-16T01:35:18;2.33;;;1.15;;
14526;SDS011;7350;51.208;4.238;2022-10-16T01:37:48;2.47;;;1.15;;
14526;SDS011;7350;51.208;4.238;2022-10-16T01:40:18;3.25;;;1.40;;
14526;SDS011;7350;51.208;4.238;2022-10-16T01:42:49;3.55;;;1.50;;
14526;SDS011;7350;51.208;4.238;2022-10-16T01:45:19;3.22;;;1.23;;
14526;SDS011;7350;51.208;4.238;2022-10-16T01:47:47;1.23;;;1.00;;
14526;SDS011;7350;51.208;4.238;2022-10-16T01:50:18;1.42;;;1.25;;
14526;SDS011;7350;51.208;4.238;2022-10-16T01:52:47;1.83;;;1.15;;
14526;SDS011;7350;51.208;4.238;2022-10-16T01:55:18;2.95;;;1.08;;
14526;SDS011;7350;51.208;4.238;2022-10-16T01:57:50;3.05;;;1.50;;
14526;SDS011;7350;51.208;4.238;2022-10-16T02:00:20;2.08;;;1.10;;
14526;SDS011;7350;51.208;4.238;2022-10-16T02:02:49;1.83;;;1.02;;
14526;SDS011;7350;51.208;4.238;2022-10-16T02:05:19;1.95;;;1.17;;
14526;SDS011;7350;51.208;4.238;2022-10-16T02:07:51;3.63;;;1.45;;
14526;SDS011;7350;51.208;4.238;2022-10-16T02:10:18;1.75;;;1.20;;
14526;SDS011;7350;51.208;4.238;2022-10-16T02:12:46;4.07;;;1.23;;
14526;SDS011;7350;51.208;4.238;2022-10-16T02:15:17;2.08;;;1.30;;
14526;SDS011;7350;51.208;4.238;2022-10-16T02:17:44;2.80;;;1.50;;
14526;SDS011;7350;51.208;4.238;2022-10-16T02:20:11;4.18;;;1.17;;
14526;SDS011;7350;51.208;4.238;2022-10-16T02:22:39;1.35;;;1.05;;
14526;SDS011;7350;51.208;4.238;2022-10-16T02:25:10;2.38;;;1.33;;
14526;SDS011;7350;51.208;4.238;2022-10-16T02:27:43;1.17;;;0.90;;
14526;SDS011;7350;51.208;4.238;2022-10-16T02:30:16;2.25;;;1.20;;
14526;SDS011;7350;51.208;4.238;2022-10-16T02:32:50;1.90;;;1.48;;
14526;SDS011;7350;51.208;4.238;2022-10-16T02:35:20;2.10;;;1.30;;
14526;SDS011;7350;51.208;4.238;2022-10-16T02:37:48;3.00;;;1.50;;
14526;SDS011;7350;51.208;4.238;2022-10-16T02:40:17;1.92;;;1.15;;
14526;SDS011;7350;51.208;4.238;2022-10-16T02:42:49;1.70;;;1.25;;
14526;SDS011;7350;51.208;4.238;2022-10-16T02:45:18;2.78;;;1.35;;
14526;SDS011;7350;51.208;4.238;2022-10-16T02:47:48;1.90;;;1.50;;
14526;SDS011;7350;51.208;4.238;2022-10-16T02:50:15;4.80;;;1.80;;
14526;SDS011;7350;51.208;4.238;2022-10-16T02:52:43;2.55;;;1.30;;
14526;SDS011;7350;51.208;4.238;2022-10-16T02:55:09;3.05;;;1.63;;
14526;SDS011;7350;51.208;4.238;2022-10-16T02:57:36;5.95;;;1.40;;
14526;SDS011;7350;51.208;4.238;2022-10-16T03:00:05;1.90;;;1.50;;
14526;SDS011;7350;51.208;4.238;2022-10-16T03:02:34;1.70;;;1.48;;
14526;SDS011;7350;51.208;4.238;2022-10-16T03:05:02;3.55;;;1.70;;
14526;SDS011;7350;51.208;4.238;2022-10-16T03:07:29;3.10;;;1.90;;
14526;SDS011;7350;51.208;4.238;2022-10-16T03:09:56;2.83;;;1.60;;
14526;SDS011;7350;51.208;4.238;2022-10-16T03:12:26;4.90;;;1.77;;
14526;SDS011;7350;51.208;4.238;2022-10-16T03:14:53;2.17;;;1.50;;
14526;SDS011;7350;51.208;4.238;2022-10-16T03:17:21;4.47;;;2.20;;
14526;SDS011;7350;51.208;4.238;2022-10-16T03:19:48;1.70;;;1.52;;
14526;SDS011;7350;51.208;4.238;2022-10-16T03:22:17;3.78;;;1.65;;
14526;SDS011;7350;51.208;4.238;2022-10-16T03:24:44;2.22;;;1.70;;
14526;SDS011;7350;51.208;4.238;2022-10-16T03:27:10;4.60;;;1.50;;
14526;SDS011;7350;51.208;4.238;2022-10-16T03:29:37;2.17;;;1.70;;
14526;SDS011;7350;51.208;4.238;2022-10-16T03:32:04;3.05;;;1.63;;
14526;SDS011;7350;51.208;4.238;2022-10-16T03:34:31;4.15;;;1.95;;
14526;SDS011;7350;51.208;4.238;2022-10-16T03:36:58;2.25;;;1.77;;
14526;SDS011;7350;51.208;4.238;2022-10-16T03:39:26;4.53;;;1.88;;
14526;SDS011;7350;51.208;4.238;2022-10-16T03:41:53;3.15;;;1.60;;
14526;SDS011;7350;51.208;4.238;2022-10-16T03:44:20;5.88;;;2.00;;
14526;SDS011;7350;51.208;4.238;2022-10-16T03:46:47;2.58;;;1.95;;
14526;SDS011;7350;51.208;4.238;2022-10-16T03:49:14;5.10;;;2.05;;
14526;SDS011;7350;51.208;4.238;2022-10-16T03:51:41;3.10;;;1.80;;
14526;SDS011;7350;51.208;4.238;2022-10-16T03:54:08;3.50;;;1.95;;
14526;SDS011;7350;51.208;4.238;2022-10-16T03:56:37;4.78;;;1.80;;
14526;SDS011;7350;51.208;4.238;2022-10-16T03:59:04;4.43;;;1.92;;
14526;SDS011;7350;51.208;4.238;2022-10-16T04:01:31;4.25;;;1.77;;
14526;SDS011;7350;51.208;4.238;2022-10-16T04:03:58;4.03;;;2.10;;
14526;SDS011;7350;51.208;4.238;2022-10-16T04:06:25;3.42;;;1.92;;
14526;SDS011;7350;51.208;4.238;2022-10-16T04:08:52;3.20;;;2.03;;
14526;SDS011;7350;51.208;4.238;2022-10-16T04:11:19;5.20;;;1.80;;
14526;SDS011;7350;51.208;4.238;2022-10-16T04:13:47;4.13;;;1.90;;
14526;SDS011;7350;51.208;4.238;2022-10-16T04:16:14;3.63;;;1.95;;
14526;SDS011;7350;51.208;4.238;2022-10-16T04:18:41;3.45;;;1.98;;
14526;SDS011;7350;51.208;4.238;2022-10-16T04:21:08;4.57;;;2.08;;
14526;SDS011;7350;51.208;4.238;2022-10-16T04:23:35;4.72;;;2.20;;
14526;SDS011;7350;51.208;4.238;2022-10-16T04:26:02;5.20;;;2.10;;
14526;SDS011;7350;51.208;4.238;2022-10-16T04:28:29;2.60;;;1.65;;
14526;SDS011;7350;51.208;4.238;2022-10-16T04:30:57;5.13;;;2.00;;
14526;SDS011;7350;51.208;4.238;2022-10-16T04:33:24;2.97;;;1.80;;
14526;SDS011;7350;51.208;4.238;2022-10-16T04:35:55;5.47;;;2.00;;
14526;SDS011;7350;51.208;4.238;2022-10-16T04:38:23;4.40;;;2.13;;
14526;SDS011;7350;51.208;4.238;2022-10-16T04:40:50;4.45;;;2.42;;
14526;SDS011;7350;51.208;4.238;2022-10-16T04:43:17;4.40;;;1.88;;
14526;SDS011;7350;51.208;4.238;2022-10-16T04:45:44;4.68;;;2.13;;
14526;SDS011;7350;51.208;4.238;2022-10-16T04:48:13;2.83;;;1.85;;
14526;SDS011;7350;51.208;4.238;2022-10-16T04:50:39;4.85;;;2.30;;
14526;SDS011;7350;51.208;4.238;2022-10-16T04:53:07;3.13;;;2.20;;
14526;SDS011;7350;51.208;4.238;2022-10-16T04:55:34;4.53;;;2.25;;
14526;SDS011;7350;51.208;4.238;2022-10-16T04:58:02;5.50;;;2.08;;
14526;SDS011;7350;51.208;4.238;2022-10-16T05:00:29;4.57;;;2.25;;
14526;SDS011;7350;51.208;4.238;2022-10-16T05:02:56;3.28;;;2.13;;
14526;SDS011;7350;51.208;4.238;2022-10-16T05:05:26;4.95;;;2.00;;
14526;SDS011;7350;51.208;4.238;2022-10-16T05:07:52;4.00;;;2.28;;
14526;SDS011;7350;51.208;4.238;2022-10-16T05:10:19;4.80;;;2.35;;
14526;SDS011;7350;51.208;4.238;2022-10-16T05:12:46;5.78;;;2.22;;
14526;SDS011;7350;51.208;4.238;2022-10-16T05:15:16;3.35;;;1.95;;
14526;SDS011;7350;51.208;4.238;2022-10-16T05:17:43;4.55;;;2.20;;
14526;SDS011;7350;51.208;4.238;2022-10-16T05:20:10;4.07;;;2.33;;
14526;SDS011;7350;51.208;4.238;2022-10-16T05:22:40;6.45;;;2.00;;
14526;SDS011;7350;51.208;4.238;2022-10-16T05:25:07;3.25;;;2.58;;
14526;SDS011;7350;51.208;4.238;2022-10-16T05:27:34;5.78;;;2.05;;
14526;SDS011;7350;51.208;4.238;2022-10-16T05:30:01;4.45;;;2.40;;
14526;SDS011;7350;51.208;4.238;2022-10-16T05:32:29;4.25;;;2.45;;
14526;SDS011;7350;51.208;4.238;2022-10-16T05:34:56;4.35;;;2.15;;
14526;SDS011;7350;51.208;4.238;2022-10-16T05:37:24;3.65;;;2.17;;
14526;SDS011;7350;51.208;4.238;2022-10-16T05:39:52;8.48;;;2.88;;
14526;SDS011;7350;51.208;4.238;2022-10-16T05:42:19;4.47;;;2.40;;
14526;SDS011;7350;51.208;4.238;2022-10-16T05:44:46;5.75;;;2.47;;
14526;SDS011;7350;51.208;4.238;2022-10-16T05:47:13;5.07;;;2.25;;
14526;SDS011;7350;51.208;4.238;2022-10-16T05:49:40;3.05;;;2.10;;
14526;SDS011;7350;51.208;4.238;2022-10-16T05:52:07;5.95;;;2.35;;
14526;SDS011;7350;51.208;4.238;2022-10-16T05:54:34;5.07;;;2.00;;
14526;SDS011;7350;51.208;4.238;2022-10-16T05:57:02;4.15;;;2.20;;
14526;SDS011;7350;51.208;4.238;2022-10-16T05:59:32;4.38;;;2.22;;
14526;SDS011;7350;51.208;4.238;2022-10-16T06:01:59;5.97;;;1.92;;
14526;SDS011;7350;51.208;4.238;2022-10-16T06:04:26;3.45;;;1.80;;
14526;SDS011;7350;51.208;4.238;2022-10-16T06:06:52;5.15;;;2.20;;
14526;SDS011;7350;51.208;4.238;2022-10-16T06:09:19;4.28;;;2.20;;
14526;SDS011;7350;51.208;4.238;2022-10-16T06:11:46;3.67;;;2.20;;
14526;SDS011;7350;51.208;4.238;2022-10-16T06:14:14;4.03;;;2.20;;
14526;SDS011;7350;51.208;4.238;2022-10-16T06:16:41;4.40;;;2.20;;
14526;SDS011;7350;51.208;4.238;2022-10-16T06:19:08;4.20;;;2.40;;
14526;SDS011;7350;51.208;4.238;2022-10-16T06:21:35;3.78;;;2.10;;
14526;SDS011;7350;51.208;4.238;2022-10-16T06:24:02;5.70;;;2.40;;
14526;SDS011;7350;51.208;4.238;2022-10-16T06:26:30;5.43;;;2.30;;
14526;SDS011;7350;51.208;4.238;2022-10-16T06:28:58;4.30;;;2.10;;
14526;SDS011;7350;51.208;4.238;2022-10-16T06:31:27;4.93;;;2.35;;
14526;SDS011;7350;51.208;4.238;2022-10-16T06:33:56;4.47;;;2.65;;
14526;SDS011;7350;51.208;4.238;2022-10-16T06:36:24;4.00;;;2.38;;
14526;SDS011;7350;51.208;4.238;2022-10-16T06:38:51;5.03;;;2.60;;
14526;SDS011;7350;51.208;4.238;2022-10-16T06:41:20;2.95;;;1.88;;
14526;SDS011;7350;51.208;4.238;2022-10-16T06:43:47;5.22;;;2.70;;
14526;SDS011;7350;51.208;4.238;2022-10-16T06:46:15;4.00;;;2.20;;
14526;SDS011;7350;51.208;4.238;2022-10-16T06:48:46;4.68;;;2.13;;
14526;SDS011;7350;51.208;4.238;2022-10-16T06:51:13;4.93;;;2.30;;
14526;SDS011;7350;51.208;4.238;2022-10-16T06:53:42;6.68;;;2.58;;
14526;SDS011;7350;51.208;4.238;2022-10-16T06:56:12;4.57;;;2.53;;
14526;SDS011;7350;51.208;4.238;2022-10-16T06:58:40;5.07;;;2.55;;
14526;SDS011;7350;51.208;4.238;2022-10-16T07:01:08;4.95;;;2.20;;
14526;SDS011;7350;51.208;4.238;2022-10-16T07:03:35;3.22;;;2.10;;
14526;SDS011;7350;51.208;4.238;2022-10-16T07:06:05;4.88;;;2.38;;
14526;SDS011;7350;51.208;4.238;2022-10-16T07:08:39;5.35;;;2.10;;
14526;SDS011;7350;51.208;4.238;2022-10-16T07:11:09;5.05;;;1.73;;
14526;SDS011;7350;51.208;4.238;2022-10-16T07:13:37;4.43;;;1.85;;
14526;SDS011;7350;51.208;4.238;2022-10-16T07:16:05;3.63;;;2.10;;
14526;SDS011;7350;51.208;4.238;2022-10-16T07:18:33;5.00;;;2.50;;
14526;SDS011;7350;51.208;4.238;2022-10-16T07:21:06;3.45;;;1.92;;
14526;SDS011;7350;51.208;4.238;2022-10-16T07:23:36;3.20;;;2.00;;
14526;SDS011;7350;51.208;4.238;2022-10-16T07:26:03;5.00;;;2.25;;
14526;SDS011;7350;51.208;4.238;2022-10-16T07:28:31;3.67;;;2.30;;
14526;SDS011;7350;51.208;4.238;2022-10-16T07:31:00;4.25;;;2.20;;
14526;SDS011;7350;51.208;4.238;2022-10-16T07:33:28;3.33;;;1.95;;
14526;SDS011;7350;51.208;4.238;2022-10-16T07:35:55;5.70;;;2.63;;
14526;SDS011;7350;51.208;4.238;2022-10-16T07:38:24;6.18;;;2.42;;
14526;SDS011;7350;51.208;4.238;2022-10-16T07:40:55;4.78;;;2.05;;
14526;SDS011;7350;51.208;4.238;2022-10-16T07:43:23;4.38;;;2.03;;
14526;SDS011;7350;51.208;4.238;2022-10-16T07:45:50;5.40;;;2.05;;
14526;SDS011;7350;51.208;4.238;2022-10-16T07:48:17;6.05;;;2.30;;
14526;SDS011;7350;51.208;4.238;2022-10-16T07:50:44;3.92;;;2.05;;
14526;SDS011;7350;51.208;4.238;2022-10-16T07:53:12;3.50;;;1.88;;
14526;SDS011;7350;51.208;4.238;2022-10-16T07:55:40;5.40;;;2.38;;
14526;SDS011;7350;51.208;4.238;2022-10-16T07:58:08;3.58;;;2.05;;
14526;SDS011;7350;51.208;4.238;2022-10-16T08:00:35;4.00;;;1.65;;
14526;SDS011;7350;51.208;4.238;2022-10-16T08:03:03;3.65;;;1.83;;
14526;SDS011;7350;51.208;4.238;2022-10-16T08:05:31;5.90;;;1.70;;
14526;SDS011;7350;51.208;4.238;2022-10-16T08:07:58;3.55;;;1.50;;
14526;SDS011;7350;51.208;4.238;2022-10-16T08:10:26;5.97;;;2.00;;
14526;SDS011;7350;51.208;4.238;2022-10-16T08:12:55;5.45;;;2.20;;
14526;SDS011;7350;51.208;4.238;2022-10-16T08:15:22;6.28;;;1.95;;
14526;SDS011;7350;51.208;4.238;2022-10-16T08:17:56;3.28;;;1.65;;
14526;SDS011;7350;51.208;4.238;2022-10-16T08:20:24;6.80;;;2.05;;
14526;SDS011;7350;51.208;4.238;2022-10-16T08:22:51;4.30;;;1.80;;
14526;SDS011;7350;51.208;4.238;2022-10-16T08:25:19;6.15;;;2.25;;
14526;SDS011;7350;51.208;4.238;2022-10-16T08:27:46;5.57;;;2.00;;
14526;SDS011;7350;51.208;4.238;2022-10-16T08:30:14;3.40;;;2.03;;
14526;SDS011;7350;51.208;4.238;2022-10-16T08:32:42;6.10;;;2.53;;
14526;SDS011;7350;51.208;4.238;2022-10-16T08:35:09;3.65;;;1.52;;
14526;SDS011;7350;51.208;4.238;2022-10-16T08:37:36;4.05;;;1.67;;
14526;SDS011;7350;51.208;4.238;2022-10-16T08:40:04;2.80;;;1.60;;
14526;SDS011;7350;51.208;4.238;2022-10-16T08:42:39;7.45;;;1.90;;
14526;SDS011;7350;51.208;4.238;2022-10-16T08:45:21;5.25;;;1.90;;
14526;SDS011;7350;51.208;4.238;2022-10-16T08:48:00;3.25;;;1.63;;
14526;SDS011;7350;51.208;4.238;2022-10-16T08:50:37;5.97;;;1.80;;
14526;SDS011;7350;51.208;4.238;2022-10-16T08:53:05;6.70;;;1.60;;
14526;SDS011;7350;51.208;4.238;2022-10-16T08:55:37;4.70;;;1.58;;
14526;SDS011;7350;51.208;4.238;2022-10-16T08:58:10;5.03;;;1.50;;
14526;SDS011;7350;51.208;4.238;2022-10-16T09:00:40;4.45;;;1.75;;
14526;SDS011;7350;51.208;4.238;2022-10-16T09:03:13;5.30;;;1.60;;
14526;SDS011;7350;51.208;4.238;2022-10-16T09:05:52;4.70;;;1.67;;
14526;SDS011;7350;51.208;4.238;2022-10-16T09:08:29;4.70;;;1.92;;
14526;SDS011;7350;51.208;4.238;2022-10-16T09:11:06;4.90;;;1.60;;
14526;SDS011;7350;51.208;4.238;2022-10-16T09:13:42;5.13;;;1.80;;
14526;SDS011;7350;51.208;4.238;2022-10-16T09:16:18;7.07;;;1.60;;
14526;SDS011;7350;51.208;4.238;2022-10-16T09:18:51;6.30;;;2.00;;
14526;SDS011;7350;51.208;4.238;2022-10-16T09:21:25;4.40;;;1.33;;
14526;SDS011;7350;51.208;4.238;2022-10-16T09:23:56;5.47;;;1.60;;
14526;SDS011;7350;51.208;4.238;2022-10-16T09:26:24;4.95;;;1.65;;
14526;SDS011;7350;51.208;4.238;2022-10-16T09:28:51;7.40;;;1.58;;
14526;SDS011;7350;51.208;4.238;2022-10-16T09:31:21;5.93;;;1.67;;
14526;SDS011;7350;51.208;4.238;2022-10-16T09:33:50;7.60;;;2.13;;
14526;SDS011;7350;51.208;4.238;2022-10-16T09:36:19;6.30;;;1.63;;
14526;SDS011;7350;51.208;4.238;2022-10-16T09:38:48;4.40;;;1.40;;
14526;SDS011;7350;51.208;4.238;2022-10-16T09:41:16;7.25;;;1.77;;
14526;SDS011;7350;51.208;4.238;2022-10-16T09:43:49;4.25;;;1.88;;
14526;SDS011;7350;51.208;4.238;2022-10-16T09:46:26;6.55;;;1.65;;
14526;SDS011;7350;51.208;4.238;2022-10-16T09:48:54;6.25;;;1.85;;
14526;SDS011;7350;51.208;4.238;2022-10-16T09:51:24;8.68;;;1.90;;
14526;SDS011;7350;51.208;4.238;2022-10-16T09:53:57;4.45;;;1.52;;
14526;SDS011;7350;51.208;4.238;2022-10-16T09:56:26;6.93;;;1.63;;
14526;SDS011;7350;51.208;4.238;2022-10-16T09:58:55;5.72;;;1.38;;
14526;SDS011;7350;51.208;4.238;2022-10-16T10:01:24;4.65;;;1.60;;
14526;SDS011;7350;51.208;4.238;2022-10-16T10:03:55;6.57;;;2.40;;
14526;SDS011;7350;51.208;4.238;2022-10-16T10:06:27;4.93;;;1.60;;
14526;SDS011;7350;51.208;4.238;2022-10-16T10:08:57;9.52;;;1.60;;
14526;SDS011;7350;51.208;4.238;2022-10-16T10:11:42;7.00;;;1.83;;
14526;SDS011;7350;51.208;4.238;2022-10-16T10:14:21;7.90;;;2.00;;
14526;SDS011;7350;51.208;4.238;2022-10-16T10:17:08;10.07;;;2.67;;
14526;SDS011;7350;51.208;4.238;2022-10-16T10:19:38;7.93;;;1.95;;
14526;SDS011;7350;51.208;4.238;2022-10-16T10:22:15;9.48;;;1.88;;
14526;SDS011;7350;51.208;4.238;2022-10-16T10:27:44;7.70;;;1.73;;
14526;SDS011;7350;51.208;4.238;2022-10-16T10:30:35;8.07;;;2.05;;
14526;SDS011;7350;51.208;4.238;2022-10-16T10:33:23;9.05;;;1.85;;
14526;SDS011;7350;51.208;4.238;2022-10-16T10:36:00;7.45;;;1.70;;
14526;SDS011;7350;51.208;4.238;2022-10-16T10:38:37;8.05;;;1.88;;
14526;SDS011;7350;51.208;4.238;2022-10-16T10:41:14;8.43;;;1.48;;
14526;SDS011;7350;51.208;4.238;2022-10-16T10:43:56;7.72;;;1.85;;
14526;SDS011;7350;51.208;4.238;2022-10-16T10:46:34;8.20;;;2.08;;
14526;SDS011;7350;51.208;4.238;2022-10-16T10:49:10;7.25;;;2.28;;
14526;SDS011;7350;51.208;4.238;2022-10-16T10:51:48;7.00;;;1.73;;
14526;SDS011;7350;51.208;4.238;2022-10-16T10:54:23;6.63;;;1.92;;
14526;SDS011;7350;51.208;4.238;2022-10-16T10:56:59;6.15;;;1.75;;
14526;SDS011;7350;51.208;4.238;2022-10-16T10:59:43;4.35;;;1.40;;
14526;SDS011;7350;51.208;4.238;2022-10-16T11:02:21;8.90;;;1.70;;
14526;SDS011;7350;51.208;4.238;2022-10-16T11:04:57;6.07;;;1.67;;
14526;SDS011;7350;51.208;4.238;2022-10-16T11:07:45;6.72;;;1.80;;
14526;SDS011;7350;51.208;4.238;2022-10-16T11:10:17;6.40;;;1.70;;
14526;SDS011;7350;51.208;4.238;2022-10-16T11:12:47;6.97;;;1.80;;
14526;SDS011;7350;51.208;4.238;2022-10-16T11:15:19;7.38;;;1.73;;
14526;SDS011;7350;51.208;4.238;2022-10-16T11:17:50;7.65;;;1.75;;
14526;SDS011;7350;51.208;4.238;2022-10-16T11:20:25;8.15;;;1.73;;
14526;SDS011;7350;51.208;4.238;2022-10-16T11:22:54;20.77;;;3.13;;
14526;SDS011;7350;51.208;4.238;2022-10-16T11:25:24;10.43;;;2.42;;
14526;SDS011;7350;51.208;4.238;2022-10-16T11:27:55;8.20;;;1.80;;
14526;SDS011;7350;51.208;4.238;2022-10-16T11:30:28;29.25;;;3.28;;
14526;SDS011;7350;51.208;4.238;2022-10-16T11:33:00;8.18;;;1.80;;
14526;SDS011;7350;51.208;4.238;2022-10-16T11:35:39;20.75;;;2.65;;
14526;SDS011;7350;51.208;4.238;2022-10-16T11:38:12;16.52;;;2.10;;
14526;SDS011;7350;51.208;4.238;2022-10-16T11:40:42;40.10;;;3.90;;
14526;SDS011;7350;51.208;4.238;2022-10-16T11:43:13;10.45;;;1.70;;
14526;SDS011;7350;51.208;4.238;2022-10-16T11:45:43;12.27;;;2.10;;
14526;SDS011;7350;51.208;4.238;2022-10-16T11:48:18;7.97;;;1.60;;
14526;SDS011;7350;51.208;4.238;2022-10-16T11:50:53;7.05;;;1.50;;
14526;SDS011;7350;51.208;4.238;2022-10-16T11:53:24;10.93;;;2.10;;
14526;SDS011;7350;51.208;4.238;2022-10-16T11:56:03;12.25;;;2.35;;
14526;SDS011;7350;51.208;4.238;2022-10-16T11:58:31;5.70;;;1.73;;
14526;SDS011;7350;51.208;4.238;2022-10-16T12:01:03;6.75;;;1.45;;
14526;SDS011;7350;51.208;4.238;2022-10-16T12:03:44;9.07;;;1.75;;
14526;SDS011;7350;51.208;4.238;2022-10-16T12:06:18;7.43;;;1.73;;
14526;SDS011;7350;51.208;4.238;2022-10-16T12:08:53;5.28;;;1.27;;
14526;SDS011;7350;51.208;4.238;2022-10-16T12:11:31;10.45;;;1.60;;
14526;SDS011;7350;51.208;4.238;2022-10-16T12:14:03;6.35;;;1.38;;
14526;SDS011;7350;51.208;4.238;2022-10-16T12:16:32;4.32;;;1.23;;
14526;SDS011;7350;51.208;4.238;2022-10-16T12:19:03;7.95;;;1.90;;
14526;SDS011;7350;51.208;4.238;2022-10-16T12:21:38;6.00;;;1.30;;
14526;SDS011;7350;51.208;4.238;2022-10-16T12:24:06;7.25;;;1.60;;
14526;SDS011;7350;51.208;4.238;2022-10-16T12:26:47;7.50;;;1.60;;
14526;SDS011;7350;51.208;4.238;2022-10-16T12:29:21;6.85;;;1.60;;
14526;SDS011;7350;51.208;4.238;2022-10-16T12:31:54;3.88;;;1.23;;
14526;SDS011;7350;51.208;4.238;2022-10-16T12:34:22;9.30;;;1.70;;
14526;SDS011;7350;51.208;4.238;2022-10-16T12:36:54;4.47;;;1.27;;
14526;SDS011;7350;51.208;4.238;2022-10-16T12:39:33;7.13;;;1.50;;
14526;SDS011;7350;51.208;4.238;2022-10-16T12:42:03;7.50;;;1.48;;
14526;SDS011;7350;51.208;4.238;2022-10-16T12:44:31;8.52;;;1.42;;
14526;SDS011;7350;51.208;4.238;2022-10-16T12:47:00;8.07;;;1.42;;
14526;SDS011;7350;51.208;4.238;2022-10-16T12:49:31;5.78;;;1.40;;
14526;SDS011;7350;51.208;4.238;2022-10-16T12:52:04;4.00;;;1.27;;
14526;SDS011;7350;51.208;4.238;2022-10-16T12:54:48;6.03;;;1.25;;
14526;SDS011;7350;51.208;4.238;2022-10-16T12:57:24;5.95;;;1.02;;
14526;SDS011;7350;51.208;4.238;2022-10-16T13:00:03;6.65;;;1.38;;
14526;SDS011;7350;51.208;4.238;2022-10-16T13:05:59;6.85;;;1.50;;
14526;SDS011;7350;51.208;4.238;2022-10-16T13:08:38;2.17;;;0.98;;
14526;SDS011;7350;51.208;4.238;2022-10-16T13:11:14;7.50;;;1.45;;
14526;SDS011;7350;51.208;4.238;2022-10-16T13:16:44;2.80;;;1.20;;
14526;SDS011;7350;51.208;4.238;2022-10-16T13:19:23;4.18;;;1.25;;
14526;SDS011;7350;51.208;4.238;2022-10-16T13:21:56;5.65;;;1.10;;
14526;SDS011;7350;51.208;4.238;2022-10-16T13:24:36;3.90;;;1.23;;
14526;SDS011;7350;51.208;4.238;2022-10-16T13:27:17;2.25;;;1.25;;
14526;SDS011;7350;51.208;4.238;2022-10-16T13:29:53;3.47;;;1.13;;
14526;SDS011;7350;51.208;4.238;2022-10-16T13:32:27;6.85;;;1.27;;
14526;SDS011;7350;51.208;4.238;2022-10-16T13:34:54;4.82;;;1.48;;
14526;SDS011;7350;51.208;4.238;2022-10-16T13:37:22;4.00;;;1.23;;
14526;SDS011;7350;51.208;4.238;2022-10-16T13:39:51;5.35;;;1.30;;
14526;SDS011;7350;51.208;4.238;2022-10-16T13:42:33;3.70;;;1.00;;
14526;SDS011;7350;51.208;4.238;2022-10-16T13:45:00;2.80;;;0.98;;
14526;SDS011;7350;51.208;4.238;2022-10-16T13:47:28;4.18;;;1.58;;
14526;SDS011;7350;51.208;4.238;2022-10-16T13:49:59;3.30;;;0.90;;
14526;SDS011;7350;51.208;4.238;2022-10-16T13:52:26;4.60;;;1.45;;
14526;SDS011;7350;51.208;4.238;2022-10-16T13:54:55;4.60;;;1.35;;
14526;SDS011;7350;51.208;4.238;2022-10-16T13:57:22;5.35;;;2.03;;
14526;SDS011;7350;51.208;4.238;2022-10-16T13:59:50;3.80;;;0.93;;
14526;SDS011;7350;51.208;4.238;2022-10-16T14:02:19;3.60;;;1.20;;
14526;SDS011;7350;51.208;4.238;2022-10-16T14:04:49;1.63;;;0.93;;
14526;SDS011;7350;51.208;4.238;2022-10-16T14:07:18;3.28;;;1.50;;
14526;SDS011;7350;51.208;4.238;2022-10-16T14:09:49;7.45;;;4.15;;
14526;SDS011;7350;51.208;4.238;2022-10-16T14:12:18;4.50;;;0.93;;
14526;SDS011;7350;51.208;4.238;2022-10-16T14:14:47;3.20;;;1.00;;
14526;SDS011;7350;51.208;4.238;2022-10-16T14:17:18;3.50;;;1.25;;
14526;SDS011;7350;51.208;4.238;2022-10-16T14:19:48;2.40;;;0.90;;
14526;SDS011;7350;51.208;4.238;2022-10-16T14:22:22;4.22;;;1.10;;
14526;SDS011;7350;51.208;4.238;2022-10-16T14:24:54;4.38;;;0.95;;
14526;SDS011;7350;51.208;4.238;2022-10-16T14:27:25;4.10;;;1.00;;
14526;SDS011;7350;51.208;4.238;2022-10-16T14:30:13;4.18;;;1.30;;
14526;SDS011;7350;51.208;4.238;2022-10-16T14:32:42;3.30;;;0.82;;
14526;SDS011;7350;51.208;4.238;2022-10-16T14:35:23;3.67;;;0.90;;
14526;SDS011;7350;51.208;4.238;2022-10-16T14:37:52;2.83;;;1.00;;
14526;SDS011;7350;51.208;4.238;2022-10-16T14:40:20;3.70;;;1.17;;
14526;SDS011;7350;51.208;4.238;2022-10-16T14:42:51;3.03;;;0.88;;
14526;SDS011;7350;51.208;4.238;2022-10-16T14:45:18;3.78;;;0.90;;
14526;SDS011;7350;51.208;4.238;2022-10-16T14:47:48;1.73;;;0.68;;
14526;SDS011;7350;51.208;4.238;2022-10-16T14:50:17;6.53;;;1.08;;
14526;SDS011;7350;51.208;4.238;2022-10-16T14:52:44;5.28;;;1.23;;
14526;SDS011;7350;51.208;4.238;2022-10-16T14:55:11;2.17;;;0.90;;
14526;SDS011;7350;51.208;4.238;2022-10-16T14:57:38;4.13;;;0.93;;
14526;SDS011;7350;51.208;4.238;2022-10-16T15:00:13;3.75;;;0.90;;
14526;SDS011;7350;51.208;4.238;2022-10-16T15:02:42;2.75;;;0.93;;
14526;SDS011;7350;51.208;4.238;2022-10-16T15:05:14;4.47;;;1.20;;
14526;SDS011;7350;51.208;4.238;2022-10-16T15:07:43;2.13;;;1.00;;
14526;SDS011;7350;51.208;4.238;2022-10-16T15:10:11;3.10;;;0.93;;
14526;SDS011;7350;51.208;4.238;2022-10-16T15:12:38;4.80;;;1.17;;
14526;SDS011;7350;51.208;4.238;2022-10-16T15:15:21;4.80;;;0.95;;
14526;SDS011;7350;51.208;4.238;2022-10-16T15:17:55;2.97;;;1.08;;
14526;SDS011;7350;51.208;4.238;2022-10-16T15:20:25;2.72;;;1.02;;
14526;SDS011;7350;51.208;4.238;2022-10-16T15:22:55;2.63;;;1.10;;
14526;SDS011;7350;51.208;4.238;2022-10-16T15:25:29;3.53;;;1.20;;
14526;SDS011;7350;51.208;4.238;2022-10-16T15:27:58;3.28;;;1.20;;
14526;SDS011;7350;51.208;4.238;2022-10-16T15:30:29;2.47;;;1.10;;